Time;durP1;ratioP1;P1;durP2;ratioP2;P2;SDS_P1;SDS_P2;PMS_P1;PMS_P2;Temp;Humidity;BMP_temperature;BMP_pressure;BME280_temperature;BME280_humidity;BME280_pressure;Samples;Min_cycle;Max_cycle;Signal;HPM_P1;HPM_P2
2021/08/25 00:02:10;;;;;;;7.10;1.90;;;;;;;;;;5006228;28;20775;-84
2021/08/25 00:04:40;;;;;;;8.73;2.20;;;;;;;;;;4999570;28;20136;-83
2021/08/25 00:07:09;;;;;;;6.80;1.90;;;;;;;;;;5004780;28;20112;-83
2021/08/25 00:09:36;;;;;;;7.45;2.20;;;;;;;;;;4987496;28;20140;-83
2021/08/25 00:12:03;;;;;;;8.63;2.28;;;;;;;;;;5003901;28;20029;-82
2021/08/25 00:14:29;;;;;;;6.65;1.80;;;;;;;;;;5007555;28;20471;-84
2021/08/25 00:16:55;;;;;;;6.93;2.05;;;;;;;;;;4990205;28;20061;-83
2021/08/25 00:19:21;;;;;;;7.25;1.90;;;;;;;;;;5002350;28;20036;-83
2021/08/25 00:21:48;;;;;;;7.18;1.90;;;;;;;;;;5000768;28;20025;-83
2021/08/25 00:24:14;;;;;;;7.65;1.88;;;;;;;;;;5002916;28;20021;-83
2021/08/25 00:26:40;;;;;;;9.35;1.90;;;;;;;;;;5000694;28;20029;-83
2021/08/25 00:29:06;;;;;;;8.52;1.70;;;;;;;;;;4986916;28;20393;-83
2021/08/25 00:31:33;;;;;;;4.22;1.50;;;;;;;;;;5002685;28;20129;-83
2021/08/25 00:33:59;;;;;;;7.80;1.85;;;;;;;;;;5004600;28;20150;-83
2021/08/25 00:36:25;;;;;;;10.88;2.40;;;;;;;;;;4990882;28;20047;-83
2021/08/25 00:38:51;;;;;;;8.73;1.83;;;;;;;;;;4988056;28;20048;-83
2021/08/25 00:41:18;;;;;;;8.90;1.80;;;;;;;;;;4995914;28;20482;-82
2021/08/25 00:43:44;;;;;;;6.18;1.92;;;;;;;;;;5000044;28;20032;-83
2021/08/25 00:46:11;;;;;;;6.90;1.70;;;;;;;;;;5000233;28;20044;-82
2021/08/25 00:48:37;;;;;;;8.45;1.80;;;;;;;;;;4995002;28;20025;-84
2021/08/25 00:51:03;;;;;;;7.50;1.92;;;;;;;;;;4995638;28;20668;-84
2021/08/25 00:53:30;;;;;;;6.28;1.88;;;;;;;;;;4993092;28;20033;-83
2021/08/25 00:55:58;;;;;;;7.22;1.90;;;;;;;;;;5002882;28;20029;-84
2021/08/25 00:58:24;;;;;;;6.00;1.80;;;;;;;;;;5011948;28;20033;-84
2021/08/25 01:01:03;;;;;;;8.85;2.08;;;;;;;;;;4993996;28;20036;-85
2021/08/25 01:03:32;;;;;;;8.30;2.50;;;;;;;;;;5007359;28;20021;-84
2021/08/25 01:06:01;;;;;;;7.03;1.67;;;;;;;;;;5011824;28;20033;-84
2021/08/25 01:08:27;;;;;;;6.43;1.95;;;;;;;;;;4992059;28;20053;-83
2021/08/25 01:11:04;;;;;;;6.25;2.00;;;;;;;;;;5009920;28;20041;-84
2021/08/25 01:13:30;;;;;;;8.93;2.17;;;;;;;;;;5006993;28;20026;-83
2021/08/25 01:15:56;;;;;;;8.80;2.17;;;;;;;;;;5010334;28;20067;-83
2021/08/25 01:18:23;;;;;;;7.53;2.33;;;;;;;;;;5012044;28;20028;-83
2021/08/25 01:20:49;;;;;;;6.97;2.10;;;;;;;;;;4984834;28;20026;-82
2021/08/25 01:23:20;;;;;;;9.45;2.17;;;;;;;;;;5011298;28;20025;-83
2021/08/25 01:25:47;;;;;;;9.48;2.50;;;;;;;;;;5007648;28;20026;-82
2021/08/25 01:28:16;;;;;;;8.52;2.22;;;;;;;;;;5011160;28;20032;-83
2021/08/25 01:30:45;;;;;;;10.40;2.60;;;;;;;;;;4987479;28;21624;-83
2021/08/25 01:33:21;;;;;;;8.73;2.35;;;;;;;;;;5004296;28;20017;-85
2021/08/25 01:35:47;;;;;;;7.32;2.15;;;;;;;;;;5001098;28;20072;-82
2021/08/25 01:38:26;;;;;;;6.65;2.25;;;;;;;;;;4985252;28;20056;-85
2021/08/25 01:40:52;;;;;;;8.55;2.50;;;;;;;;;;5001505;28;20835;-82
2021/08/25 01:43:18;;;;;;;10.32;2.58;;;;;;;;;;4986202;28;20049;-85
2021/08/25 01:45:44;;;;;;;11.77;2.90;;;;;;;;;;4990602;28;20063;-85
2021/08/25 01:48:11;;;;;;;10.18;2.97;;;;;;;;;;4987495;28;20030;-84
2021/08/25 01:50:37;;;;;;;9.05;2.97;;;;;;;;;;4983777;28;20076;-83
2021/08/25 01:53:04;;;;;;;9.85;2.95;;;;;;;;;;5006912;28;20030;-82
2021/08/25 01:55:30;;;;;;;9.40;3.15;;;;;;;;;;5001195;28;20030;-81
2021/08/25 01:57:56;;;;;;;7.93;2.67;;;;;;;;;;4986634;28;20039;-83
2021/08/25 02:00:22;;;;;;;11.82;2.92;;;;;;;;;;4984857;28;20036;-83
2021/08/25 02:02:49;;;;;;;7.72;3.13;;;;;;;;;;4983477;28;20033;-82
2021/08/25 02:05:15;;;;;;;7.75;2.95;;;;;;;;;;5002756;28;21390;-83
2021/08/25 02:07:41;;;;;;;8.48;3.28;;;;;;;;;;4997130;28;20030;-82
2021/08/25 02:10:08;;;;;;;10.07;3.38;;;;;;;;;;4999004;28;20053;-82
2021/08/25 02:12:34;;;;;;;9.35;3.50;;;;;;;;;;4984862;28;20030;-82
2021/08/25 02:15:00;;;;;;;7.72;2.78;;;;;;;;;;4982024;28;20054;-82
2021/08/25 02:17:27;;;;;;;8.40;3.10;;;;;;;;;;4992797;28;20107;-83
2021/08/25 02:19:54;;;;;;;10.40;3.30;;;;;;;;;;4980274;28;20026;-83
2021/08/25 02:22:20;;;;;;;8.93;3.25;;;;;;;;;;4997764;28;20027;-84
2021/08/25 02:24:46;;;;;;;10.50;4.13;;;;;;;;;;5003476;28;20084;-83
2021/08/25 02:27:12;;;;;;;8.82;3.15;;;;;;;;;;4991093;28;20014;-83
2021/08/25 02:29:39;;;;;;;8.70;3.10;;;;;;;;;;4989490;28;20115;-83
2021/08/25 02:32:05;;;;;;;9.52;3.17;;;;;;;;;;4990317;28;20025;-83
2021/08/25 02:34:31;;;;;;;12.02;4.05;;;;;;;;;;4992120;28;20117;-84
2021/08/25 02:36:57;;;;;;;9.52;3.50;;;;;;;;;;5003447;28;20060;-84
2021/08/25 02:39:24;;;;;;;8.73;3.53;;;;;;;;;;5009839;28;20511;-82
2021/08/25 02:41:50;;;;;;;10.27;3.58;;;;;;;;;;4989628;28;20036;-82
2021/08/25 02:44:16;;;;;;;11.77;3.58;;;;;;;;;;4993959;28;20031;-85
2021/08/25 02:46:42;;;;;;;10.02;3.58;;;;;;;;;;5005580;28;20056;-83
2021/08/25 02:49:09;;;;;;;8.65;3.30;;;;;;;;;;4991785;28;20037;-83
2021/08/25 02:51:35;;;;;;;8.73;2.90;;;;;;;;;;5010338;28;20557;-83
2021/08/25 02:54:01;;;;;;;7.57;2.90;;;;;;;;;;5003163;28;20046;-83
2021/08/25 02:56:27;;;;;;;8.30;3.00;;;;;;;;;;5012336;28;20033;-83
2021/08/25 02:58:53;;;;;;;7.65;2.97;;;;;;;;;;4983836;28;20175;-83
2021/08/25 03:01:20;;;;;;;7.93;3.15;;;;;;;;;;5008666;28;20950;-83
2021/08/25 03:03:47;;;;;;;8.13;3.10;;;;;;;;;;4999676;28;20016;-84
2021/08/25 03:06:13;;;;;;;8.60;3.13;;;;;;;;;;4989469;28;20136;-83
2021/08/25 03:08:39;;;;;;;9.15;3.15;;;;;;;;;;5004945;28;20760;-84
2021/08/25 03:11:09;;;;;;;9.10;3.17;;;;;;;;;;4986662;28;20116;-84
2021/08/25 03:13:35;;;;;;;10.35;2.90;;;;;;;;;;5005381;28;20018;-84
2021/08/25 03:16:01;;;;;;;9.88;2.75;;;;;;;;;;5004520;28;20006;-84
2021/08/25 03:18:27;;;;;;;6.85;2.65;;;;;;;;;;5018110;28;20712;-82
2021/08/25 03:20:54;;;;;;;8.27;2.65;;;;;;;;;;5001066;28;20474;-83
2021/08/25 03:23:20;;;;;;;8.82;2.83;;;;;;;;;;5006690;28;20050;-83
2021/08/25 03:25:46;;;;;;;6.75;2.60;;;;;;;;;;4987134;28;20508;-83
2021/08/25 03:28:12;;;;;;;7.47;2.67;;;;;;;;;;5005706;28;20028;-84
2021/08/25 03:30:39;;;;;;;8.18;2.72;;;;;;;;;;5008411;28;20031;-84
2021/08/25 03:33:08;;;;;;;8.25;2.50;;;;;;;;;;4987882;28;20034;-84
2021/08/25 03:35:34;;;;;;;6.47;2.40;;;;;;;;;;5005108;28;20030;-83
2021/08/25 03:38:00;;;;;;;7.53;2.30;;;;;;;;;;5010189;28;20025;-84
2021/08/25 03:40:27;;;;;;;6.55;2.05;;;;;;;;;;5026475;28;20024;-83
2021/08/25 03:42:53;;;;;;;8.30;2.80;;;;;;;;;;5012838;28;20029;-84
2021/08/25 03:45:19;;;;;;;7.15;2.58;;;;;;;;;;4990411;28;21019;-83
2021/08/25 03:47:45;;;;;;;12.00;2.80;;;;;;;;;;4993065;28;20017;-82
2021/08/25 03:50:12;;;;;;;7.95;2.70;;;;;;;;;;4990482;28;20500;-83
2021/08/25 03:52:38;;;;;;;7.40;2.40;;;;;;;;;;5002466;28;20120;-83
2021/08/25 03:55:05;;;;;;;7.00;2.60;;;;;;;;;;5006697;28;20032;-82
2021/08/25 03:57:31;;;;;;;6.55;2.40;;;;;;;;;;5013549;28;20056;-81
2021/08/25 03:59:57;;;;;;;11.73;3.05;;;;;;;;;;5013581;28;20036;-83
2021/08/25 04:02:23;;;;;;;7.00;2.50;;;;;;;;;;5018474;28;20031;-83
2021/08/25 04:04:49;;;;;;;9.68;2.83;;;;;;;;;;5005996;28;20029;-82
2021/08/25 04:07:16;;;;;;;9.85;2.88;;;;;;;;;;4992227;28;20025;-82
2021/08/25 04:09:42;;;;;;;9.20;2.60;;;;;;;;;;5001260;28;20037;-84
2021/08/25 04:12:08;;;;;;;7.90;2.75;;;;;;;;;;4988481;28;20072;-85
2021/08/25 04:14:35;;;;;;;7.28;2.55;;;;;;;;;;4986624;28;20037;-84
2021/08/25 04:17:01;;;;;;;8.55;2.40;;;;;;;;;;5001577;28;20037;-84
2021/08/25 04:19:27;;;;;;;7.30;2.65;;;;;;;;;;5000860;28;20104;-84
2021/08/25 04:21:53;;;;;;;6.68;2.22;;;;;;;;;;5001695;28;20036;-84
2021/08/25 04:24:20;;;;;;;7.15;2.38;;;;;;;;;;5004438;28;20041;-84
2021/08/25 04:26:46;;;;;;;9.75;2.55;;;;;;;;;;5002286;28;20021;-83
2021/08/25 04:29:12;;;;;;;11.43;2.55;;;;;;;;;;4986389;28;20551;-84
2021/08/25 04:31:38;;;;;;;7.63;2.65;;;;;;;;;;4983097;28;20031;-84
2021/08/25 04:34:05;;;;;;;7.10;2.63;;;;;;;;;;5006691;28;20112;-83
2021/08/25 04:36:31;;;;;;;7.35;2.67;;;;;;;;;;5000639;28;20060;-82
2021/08/25 04:38:57;;;;;;;6.72;2.20;;;;;;;;;;5001734;28;20029;-83
2021/08/25 04:41:23;;;;;;;8.30;2.17;;;;;;;;;;5007580;28;20608;-83
2021/08/25 04:43:50;;;;;;;8.32;2.30;;;;;;;;;;4985846;28;20792;-83
2021/08/25 04:46:19;;;;;;;9.10;2.22;;;;;;;;;;4991115;28;20048;-83
2021/08/25 04:48:45;;;;;;;6.75;2.40;;;;;;;;;;4982825;28;20049;-84
2021/08/25 04:51:12;;;;;;;5.45;2.03;;;;;;;;;;4994467;28;20045;-80
2021/08/25 04:53:39;;;;;;;7.38;2.50;;;;;;;;;;4978953;28;20043;-83
2021/08/25 04:56:05;;;;;;;11.18;2.40;;;;;;;;;;4999805;28;20033;-83
2021/08/25 04:58:35;;;;;;;8.25;2.67;;;;;;;;;;4982861;28;20038;-83
2021/08/25 05:01:02;;;;;;;7.53;2.30;;;;;;;;;;5004548;28;20057;-83
2021/08/25 05:03:28;;;;;;;9.82;2.47;;;;;;;;;;5002031;28;20034;-83
2021/08/25 05:05:54;;;;;;;7.95;2.28;;;;;;;;;;4994857;28;20091;-84
2021/08/25 05:08:21;;;;;;;6.18;1.90;;;;;;;;;;5004881;28;20092;-81
2021/08/25 05:10:48;;;;;;;9.35;1.98;;;;;;;;;;4979867;28;20061;-82
2021/08/25 05:13:14;;;;;;;5.38;2.10;;;;;;;;;;4992431;28;20511;-81
2021/08/25 05:15:44;;;;;;;7.07;2.17;;;;;;;;;;4975340;28;20037;-81
2021/08/25 05:18:10;;;;;;;9.05;2.55;;;;;;;;;;4988037;28;20940;-82
2021/08/25 05:20:36;;;;;;;9.85;2.58;;;;;;;;;;4983059;28;20540;-82
2021/08/25 05:23:03;;;;;;;11.07;2.40;;;;;;;;;;4990087;28;20091;-82
2021/08/25 05:25:29;;;;;;;11.57;2.88;;;;;;;;;;4989183;28;20032;-82
2021/08/25 05:27:55;;;;;;;9.60;2.50;;;;;;;;;;5005619;28;20034;-82
2021/08/25 05:30:22;;;;;;;10.00;3.13;;;;;;;;;;5013507;28;20033;-83
2021/08/25 05:32:51;;;;;;;9.48;2.22;;;;;;;;;;5002867;28;20049;-83
2021/08/25 05:35:21;;;;;;;13.05;2.35;;;;;;;;;;5015320;28;20068;-81
2021/08/25 05:37:48;;;;;;;6.88;2.20;;;;;;;;;;4986077;28;20069;-83
2021/08/25 05:40:15;;;;;;;6.35;1.95;;;;;;;;;;4994275;28;20083;-81
2021/08/25 05:42:42;;;;;;;6.90;2.03;;;;;;;;;;4987126;28;20121;-82
2021/08/25 05:45:09;;;;;;;9.38;2.40;;;;;;;;;;4986762;28;20148;-83
2021/08/25 05:47:35;;;;;;;10.68;2.40;;;;;;;;;;5013012;28;20067;-82
2021/08/25 05:50:02;;;;;;;7.38;1.92;;;;;;;;;;5018029;28;20032;-81
2021/08/25 05:52:28;;;;;;;8.68;1.90;;;;;;;;;;5013629;28;20531;-82
2021/08/25 05:54:54;;;;;;;6.38;1.80;;;;;;;;;;5005583;28;20184;-81
2021/08/25 05:57:20;;;;;;;6.88;2.35;;;;;;;;;;5009244;28;20128;-81
2021/08/25 05:59:47;;;;;;;8.88;1.85;;;;;;;;;;4988323;28;20029;-82
2021/08/25 06:02:13;;;;;;;6.30;2.15;;;;;;;;;;5000456;28;20017;-82
2021/08/25 06:04:39;;;;;;;7.25;2.13;;;;;;;;;;4987382;28;20082;-82
2021/08/25 06:07:09;;;;;;;8.77;2.08;;;;;;;;;;4986743;28;20022;-81
2021/08/25 06:09:36;;;;;;;8.10;2.28;;;;;;;;;;5003435;28;20108;-82
2021/08/25 06:12:02;;;;;;;7.57;1.88;;;;;;;;;;4988140;28;20056;-83
2021/08/25 06:14:29;;;;;;;8.85;2.38;;;;;;;;;;4991952;28;20181;-82
2021/08/25 06:16:55;;;;;;;8.85;2.50;;;;;;;;;;4985346;28;20040;-83
2021/08/25 06:19:21;;;;;;;9.52;2.30;;;;;;;;;;5004058;28;20560;-83
2021/08/25 06:21:48;;;;;;;7.03;1.90;;;;;;;;;;4988250;28;20109;-83
2021/08/25 06:24:14;;;;;;;8.88;4.20;;;;;;;;;;5004026;28;20865;-85
2021/08/25 06:26:41;;;;;;;9.18;2.60;;;;;;;;;;5003720;28;20076;-87
2021/08/25 06:29:07;;;;;;;9.30;2.35;;;;;;;;;;4988800;28;20026;-85
2021/08/25 06:31:34;;;;;;;10.18;2.33;;;;;;;;;;5001125;28;20029;-86
2021/08/25 06:34:00;;;;;;;9.05;2.50;;;;;;;;;;4991065;28;20085;-85
2021/08/25 06:36:27;;;;;;;8.05;2.50;;;;;;;;;;5007092;28;20033;-88
2021/08/25 06:38:53;;;;;;;10.48;2.60;;;;;;;;;;5002558;28;20041;-87
2021/08/25 06:41:19;;;;;;;8.65;2.40;;;;;;;;;;5011665;28;20021;-88
2021/08/25 06:43:45;;;;;;;11.32;2.22;;;;;;;;;;5006517;28;20025;-85
2021/08/25 06:46:11;;;;;;;8.75;1.92;;;;;;;;;;5009254;28;20037;-87
2021/08/25 06:48:38;;;;;;;6.65;1.92;;;;;;;;;;4984714;28;20022;-87
2021/08/25 06:51:04;;;;;;;10.48;2.10;;;;;;;;;;4994806;28;20021;-86
2021/08/25 06:53:31;;;;;;;9.35;2.90;;;;;;;;;;5004860;28;20172;-86
2021/08/25 06:55:58;;;;;;;12.40;2.17;;;;;;;;;;5001237;28;20029;-87
2021/08/25 06:58:26;;;;;;;11.57;2.95;;;;;;;;;;5005621;28;20033;-87
2021/08/25 07:00:53;;;;;;;9.48;2.20;;;;;;;;;;4988968;28;20033;-87
2021/08/25 07:03:19;;;;;;;11.82;2.40;;;;;;;;;;4993961;28;20025;-86
2021/08/25 07:05:45;;;;;;;10.02;2.53;;;;;;;;;;5006527;28;20385;-85
2021/08/25 07:08:11;;;;;;;11.45;2.70;;;;;;;;;;5007636;28;20050;-85
2021/08/25 07:10:38;;;;;;;8.30;2.00;;;;;;;;;;4990542;28;20035;-86
2021/08/25 07:13:04;;;;;;;8.30;1.92;;;;;;;;;;5009233;28;20092;-85
2021/08/25 07:15:31;;;;;;;9.73;1.90;;;;;;;;;;5016319;28;20030;-85
2021/08/25 07:17:57;;;;;;;6.95;1.70;;;;;;;;;;5014408;28;20026;-85
2021/08/25 07:20:23;;;;;;;6.18;1.60;;;;;;;;;;5029359;28;20156;-87
2021/08/25 07:22:50;;;;;;;5.70;1.60;;;;;;;;;;5015316;28;20030;-87
2021/08/25 07:25:16;;;;;;;7.00;1.70;;;;;;;;;;4992322;28;20024;-87
2021/08/25 07:27:43;;;;;;;4.93;1.52;;;;;;;;;;4993941;28;20029;-86
2021/08/25 07:30:10;;;;;;;8.40;1.67;;;;;;;;;;5014989;28;20510;-85
2021/08/25 07:32:38;;;;;;;6.05;1.63;;;;;;;;;;5004152;28;20032;-85
2021/08/25 07:35:05;;;;;;;7.22;1.80;;;;;;;;;;5000582;28;20603;-85
2021/08/25 07:37:31;;;;;;;7.10;1.38;;;;;;;;;;5003364;28;20045;-85
2021/08/25 07:39:57;;;;;;;8.55;1.95;;;;;;;;;;5010210;28;20112;-85
2021/08/25 07:42:24;;;;;;;5.68;1.80;;;;;;;;;;4994322;28;20040;-85
2021/08/25 07:44:50;;;;;;;5.72;1.55;;;;;;;;;;4995368;28;20864;-86
2021/08/25 07:47:16;;;;;;;8.20;1.45;;;;;;;;;;5009277;28;20037;-86
2021/08/25 07:49:43;;;;;;;6.40;1.35;;;;;;;;;;5003840;28;20028;-85
2021/08/25 07:52:09;;;;;;;5.20;1.52;;;;;;;;;;5009743;28;20033;-87
2021/08/25 07:54:35;;;;;;;3.78;1.20;;;;;;;;;;4991489;28;22006;-85
2021/08/25 07:57:01;;;;;;;5.50;1.50;;;;;;;;;;4990509;28;20049;-85
2021/08/25 07:59:27;;;;;;;4.95;1.50;;;;;;;;;;5006919;28;20047;-86
2021/08/25 08:01:54;;;;;;;6.80;1.88;;;;;;;;;;4988540;28;20037;-86
2021/08/25 08:04:20;;;;;;;5.45;1.75;;;;;;;;;;4988826;28;20018;-85
2021/08/25 08:06:47;;;;;;;6.03;1.90;;;;;;;;;;4986086;28;20099;-87
2021/08/25 08:09:13;;;;;;;4.80;1.55;;;;;;;;;;5010932;28;20055;-84
2021/08/25 08:11:40;;;;;;;5.38;1.48;;;;;;;;;;5003265;28;20053;-86
2021/08/25 08:14:07;;;;;;;7.60;1.30;;;;;;;;;;5009340;28;20029;-84
2021/08/25 08:16:35;;;;;;;5.20;1.52;;;;;;;;;;4981364;28;20477;-85
2021/08/25 08:19:04;;;;;;;4.75;1.50;;;;;;;;;;4994012;28;20034;-85
2021/08/25 08:21:30;;;;;;;5.22;1.48;;;;;;;;;;5007081;28;20033;-85
2021/08/25 08:23:57;;;;;;;4.65;1.50;;;;;;;;;;5002196;28;20030;-87
2021/08/25 08:26:23;;;;;;;4.45;1.58;;;;;;;;;;4986071;28;20037;-86
2021/08/25 08:28:50;;;;;;;7.03;1.85;;;;;;;;;;4987236;28;20406;-86
2021/08/25 08:31:16;;;;;;;5.20;1.55;;;;;;;;;;4986360;28;20014;-86
2021/08/25 08:33:43;;;;;;;5.70;1.65;;;;;;;;;;4985123;28;20025;-88
2021/08/25 08:36:09;;;;;;;7.00;1.60;;;;;;;;;;5010047;28;20630;-85
2021/08/25 08:38:35;;;;;;;7.15;1.35;;;;;;;;;;5007311;28;20065;-89
2021/08/25 08:41:02;;;;;;;5.15;1.50;;;;;;;;;;5017144;28;20052;-89
2021/08/25 08:43:28;;;;;;;5.95;1.50;;;;;;;;;;5012366;28;20140;-87
2021/08/25 08:45:54;;;;;;;5.85;1.60;;;;;;;;;;4998433;28;20025;-87
2021/08/25 08:48:21;;;;;;;5.63;1.60;;;;;;;;;;5015682;28;20131;-87
2021/08/25 08:50:47;;;;;;;4.53;1.30;;;;;;;;;;4996085;28;20030;-88
2021/08/25 08:53:14;;;;;;;6.78;1.80;;;;;;;;;;4995839;28;20030;-88
2021/08/25 08:55:40;;;;;;;8.80;2.03;;;;;;;;;;4992516;28;20033;-88
2021/08/25 08:58:07;;;;;;;9.52;1.80;;;;;;;;;;4998658;28;20120;-88
2021/08/25 09:00:34;;;;;;;13.55;1.98;;;;;;;;;;5011706;28;20917;-91
2021/08/25 09:03:03;;;;;;;8.73;1.88;;;;;;;;;;5016377;28;20068;-87
2021/08/25 09:05:32;;;;;;;5.60;1.67;;;;;;;;;;4999341;28;20036;-88
2021/08/25 09:07:58;;;;;;;8.45;1.58;;;;;;;;;;4997822;28;20037;-88
2021/08/25 09:10:27;;;;;;;4.88;1.60;;;;;;;;;;5003837;28;20120;-89
2021/08/25 09:12:55;;;;;;;4.85;1.80;;;;;;;;;;5000972;28;20451;-91
2021/08/25 09:15:26;;;;;;;6.28;1.65;;;;;;;;;;5027163;28;20170;-89
2021/08/25 09:17:58;;;;;;;5.50;1.60;;;;;;;;;;5008063;28;20044;-87
2021/08/25 09:20:24;;;;;;;4.05;1.30;;;;;;;;;;5006237;28;20041;-90
2021/08/25 09:23:07;;;;;;;7.43;1.75;;;;;;;;;;4997127;28;20653;-86
2021/08/25 09:25:34;;;;;;;5.22;1.55;;;;;;;;;;4985051;28;20065;-81
2021/08/25 09:28:01;;;;;;;6.40;1.55;;;;;;;;;;5008438;28;20080;-82
2021/08/25 09:30:47;;;;;;;7.90;1.67;;;;;;;;;;4994887;28;20053;-82
2021/08/25 09:33:13;;;;;;;6.85;1.90;;;;;;;;;;5006787;28;20617;-82
2021/08/25 09:35:42;;;;;;;6.40;1.75;;;;;;;;;;5002218;28;20042;-82
2021/08/25 09:38:09;;;;;;;3.92;1.30;;;;;;;;;;4990657;28;20108;-82
2021/08/25 09:40:44;;;;;;;6.63;1.73;;;;;;;;;;5001057;28;20346;-82
2021/08/25 09:43:11;;;;;;;5.25;1.60;;;;;;;;;;5009931;28;20026;-83
2021/08/25 09:45:37;;;;;;;10.45;2.38;;;;;;;;;;4988740;28;20040;-82
2021/08/25 09:48:04;;;;;;;6.78;2.05;;;;;;;;;;5002381;28;21024;-83
2021/08/25 09:50:30;;;;;;;9.90;1.90;;;;;;;;;;5012444;28;20039;-82
2021/08/25 09:52:56;;;;;;;5.38;1.70;;;;;;;;;;5008517;28;20026;-81
2021/08/25 09:55:35;;;;;;;6.32;1.70;;;;;;;;;;4989669;28;20029;-82
2021/08/25 09:58:02;;;;;;;8.68;1.92;;;;;;;;;;5011482;28;20030;-83
2021/08/25 10:00:28;;;;;;;7.97;2.70;;;;;;;;;;5008870;28;20021;-81
2021/08/25 10:02:55;;;;;;;5.53;1.80;;;;;;;;;;4999409;28;20029;-82
2021/08/25 10:05:26;;;;;;;6.13;1.83;;;;;;;;;;4989647;28;20038;-82
2021/08/25 10:07:52;;;;;;;6.80;1.80;;;;;;;;;;5000801;28;20029;-83
2021/08/25 10:10:19;;;;;;;8.35;2.05;;;;;;;;;;4992981;28;20071;-83
2021/08/25 10:12:48;;;;;;;8.75;2.00;;;;;;;;;;4986012;28;20117;-83
2021/08/25 10:15:42;;;;;;;6.50;1.75;;;;;;;;;;4990451;28;20117;-83
2021/08/25 10:18:37;;;;;;;7.63;1.92;;;;;;;;;;5008476;28;20020;-83
2021/08/25 10:21:04;;;;;;;8.77;2.00;;;;;;;;;;4997505;28;20065;-83
2021/08/25 10:23:50;;;;;;;10.85;2.40;;;;;;;;;;5019919;28;20113;-88
2021/08/25 10:26:17;;;;;;;10.23;2.30;;;;;;;;;;5007748;28;20052;-89
2021/08/25 10:29:07;;;;;;;8.27;2.00;;;;;;;;;;5001423;28;20029;-87
2021/08/25 10:31:49;;;;;;;10.77;1.90;;;;;;;;;;5012187;28;20030;-89
2021/08/25 10:34:16;;;;;;;11.57;2.20;;;;;;;;;;5019583;28;20049;-90
2021/08/25 10:36:43;;;;;;;5.97;1.77;;;;;;;;;;5028732;28;20112;-89
2021/08/25 10:39:28;;;;;;;6.45;1.80;;;;;;;;;;5009859;28;20060;-90
2021/08/25 10:41:54;;;;;;;5.35;1.77;;;;;;;;;;5008797;28;20530;-90
2021/08/25 10:44:39;;;;;;;6.70;1.90;;;;;;;;;;5015586;28;20026;-88
2021/08/25 10:47:06;;;;;;;7.47;1.98;;;;;;;;;;5019728;28;20025;-88
2021/08/25 10:49:36;;;;;;;5.78;1.70;;;;;;;;;;5008373;28;20029;-88
2021/08/25 10:52:14;;;;;;;7.10;1.40;;;;;;;;;;5014494;28;20029;-88
2021/08/25 10:54:44;;;;;;;7.38;1.73;;;;;;;;;;5002103;28;20050;-88
2021/08/25 10:57:20;;;;;;;4.85;1.60;;;;;;;;;;5019964;28;20095;-90
2021/08/25 11:00:08;;;;;;;6.30;1.60;;;;;;;;;;5012774;28;20038;-88
2021/08/25 11:02:38;;;;;;;7.30;1.80;;;;;;;;;;4998793;28;20122;-89
2021/08/25 11:05:05;;;;;;;6.63;1.60;;;;;;;;;;5023653;28;20113;-87
2021/08/25 11:07:31;;;;;;;6.00;1.58;;;;;;;;;;5007540;28;20034;-87
2021/08/25 11:09:58;;;;;;;5.60;1.80;;;;;;;;;;5018563;28;20080;-90
2021/08/25 11:12:24;;;;;;;5.20;1.70;;;;;;;;;;5002352;28;20042;-87
2021/08/25 11:14:52;;;;;;;10.10;1.80;;;;;;;;;;4981453;28;20107;-84
2021/08/25 11:17:26;;;;;;;7.28;1.92;;;;;;;;;;4989927;28;20507;-83
2021/08/25 11:19:57;;;;;;;6.38;1.52;;;;;;;;;;4974883;28;20160;-81
2021/08/25 11:22:23;;;;;;;7.28;1.88;;;;;;;;;;4996538;28;20560;-82
2021/08/25 11:24:51;;;;;;;4.90;1.50;;;;;;;;;;4980959;28;20038;-85
2021/08/25 11:27:18;;;;;;;8.77;1.88;;;;;;;;;;4982258;28;20032;-82
2021/08/25 11:29:45;;;;;;;5.80;1.70;;;;;;;;;;4982705;28;20021;-83
2021/08/25 11:32:13;;;;;;;9.85;2.00;;;;;;;;;;4981549;28;20748;-80
2021/08/25 11:34:43;;;;;;;9.05;2.10;;;;;;;;;;4996743;28;20036;-79
2021/08/25 11:37:09;;;;;;;9.70;2.65;;;;;;;;;;4996133;28;20033;-83
2021/08/25 11:39:36;;;;;;;6.00;1.88;;;;;;;;;;4981967;28;20033;-78
2021/08/25 11:42:02;;;;;;;7.90;1.77;;;;;;;;;;4999628;28;20602;-77
2021/08/25 11:44:36;;;;;;;7.13;1.98;;;;;;;;;;4984155;28;20061;-76
2021/08/25 11:47:28;;;;;;;4.47;1.63;;;;;;;;;;4989066;28;20090;-75
2021/08/25 11:49:56;;;;;;;6.15;1.63;;;;;;;;;;4990574;28;20612;-83
2021/08/25 11:52:32;;;;;;;6.18;2.00;;;;;;;;;;5011256;28;20118;-82
2021/08/25 11:55:02;;;;;;;6.80;1.75;;;;;;;;;;5002005;28;20036;-84
2021/08/25 11:57:54;;;;;;;6.30;1.50;;;;;;;;;;4984675;28;20705;-82
2021/08/25 12:00:36;;;;;;;5.20;1.50;;;;;;;;;;5004823;28;20056;-83
2021/08/25 12:03:06;;;;;;;7.40;1.70;;;;;;;;;;5005669;28;20111;-82
2021/08/25 12:05:33;;;;;;;6.63;1.85;;;;;;;;;;5029743;28;20092;-85
2021/08/25 12:08:04;;;;;;;8.45;2.20;;;;;;;;;;5015629;28;20028;-80
2021/08/25 12:10:31;;;;;;;8.43;1.98;;;;;;;;;;4994163;28;20032;-83
2021/08/25 12:12:58;;;;;;;8.40;2.75;;;;;;;;;;4999691;28;20582;-88
2021/08/25 12:15:43;;;;;;;7.20;1.92;;;;;;;;;;4988653;28;20030;-86
2021/08/25 12:18:10;;;;;;;6.57;2.10;;;;;;;;;;5006675;28;20026;-85
2021/08/25 12:20:37;;;;;;;7.75;1.90;;;;;;;;;;5003130;28;20049;-85
2021/08/25 12:23:07;;;;;;;9.15;1.90;;;;;;;;;;5010064;28;20369;-86
2021/08/25 12:25:44;;;;;;;8.13;2.28;;;;;;;;;;4986510;28;20055;-85
2021/08/25 12:28:30;;;;;;;9.20;2.20;;;;;;;;;;5010311;28;20022;-86
2021/08/25 12:31:09;;;;;;;6.90;2.15;;;;;;;;;;5002027;28;20037;-87
2021/08/25 12:33:35;;;;;;;8.73;2.88;;;;;;;;;;4983381;28;20047;-86
2021/08/25 12:36:20;;;;;;;8.88;2.30;;;;;;;;;;5006320;28;20049;-87
2021/08/25 12:38:46;;;;;;;7.63;2.58;;;;;;;;;;4983688;28;20398;-85
2021/08/25 12:41:13;;;;;;;5.60;1.95;;;;;;;;;;4996405;28;20025;-86
2021/08/25 12:43:40;;;;;;;7.80;2.25;;;;;;;;;;4997058;28;20425;-86
2021/08/25 12:46:06;;;;;;;6.30;2.20;;;;;;;;;;5009650;28;20730;-83
2021/08/25 12:48:33;;;;;;;10.82;2.40;;;;;;;;;;5009058;28;20028;-83
2021/08/25 12:50:59;;;;;;;8.93;2.97;;;;;;;;;;4988968;28;20056;-86
2021/08/25 12:53:25;;;;;;;9.25;3.30;;;;;;;;;;4992097;28;20078;-89
2021/08/25 12:55:51;;;;;;;12.73;3.53;;;;;;;;;;4983338;28;20088;-85
2021/08/25 12:58:18;;;;;;;9.98;3.00;;;;;;;;;;5007861;28;20025;-84
2021/08/25 13:00:44;;;;;;;8.00;2.90;;;;;;;;;;5001426;28;20080;-85
2021/08/25 13:03:10;;;;;;;24.10;3.60;;;;;;;;;;5009092;28;20025;-83
2021/08/25 13:05:36;;;;;;;9.70;3.28;;;;;;;;;;4982238;28;20079;-84
2021/08/25 13:08:02;;;;;;;11.10;3.10;;;;;;;;;;5006812;28;20028;-83
2021/08/25 13:10:29;;;;;;;8.93;2.80;;;;;;;;;;4989431;28;20547;-85
2021/08/25 13:12:55;;;;;;;10.43;2.72;;;;;;;;;;4987400;28;20037;-85
2021/08/25 13:15:21;;;;;;;10.23;2.95;;;;;;;;;;5005391;28;20566;-84
2021/08/25 13:17:48;;;;;;;9.48;3.10;;;;;;;;;;4980326;28;20037;-84
2021/08/25 13:20:14;;;;;;;9.95;3.10;;;;;;;;;;5007047;28;20492;-83
2021/08/25 13:22:40;;;;;;;8.48;2.80;;;;;;;;;;5002477;28;20755;-83
2021/08/25 13:25:07;;;;;;;9.35;2.28;;;;;;;;;;5007489;28;20018;-83
2021/08/25 13:27:33;;;;;;;8.52;3.05;;;;;;;;;;4985218;28;20026;-83
2021/08/25 13:29:59;;;;;;;9.15;2.75;;;;;;;;;;4991424;28;20777;-82
2021/08/25 13:32:26;;;;;;;9.02;2.90;;;;;;;;;;5000648;28;20044;-90
2021/08/25 13:34:52;;;;;;;9.88;2.67;;;;;;;;;;5015604;28;20029;-89
2021/08/25 13:37:18;;;;;;;12.55;2.70;;;;;;;;;;5021631;28;20126;-86
2021/08/25 13:39:44;;;;;;;11.48;2.75;;;;;;;;;;5018344;28;20025;-87
2021/08/25 13:42:11;;;;;;;7.30;2.58;;;;;;;;;;5013040;28;20771;-88
2021/08/25 13:44:37;;;;;;;9.85;2.70;;;;;;;;;;5011771;28;20615;-87
2021/08/25 13:47:03;;;;;;;8.18;2.55;;;;;;;;;;5028532;28;20045;-89
2021/08/25 13:49:30;;;;;;;6.90;2.17;;;;;;;;;;5018681;28;20029;-86
2021/08/25 13:51:56;;;;;;;11.07;2.58;;;;;;;;;;5032590;28;20017;-86
2021/08/25 13:54:22;;;;;;;7.88;2.47;;;;;;;;;;5017857;28;20535;-89
2021/08/25 13:56:48;;;;;;;9.68;2.40;;;;;;;;;;5003026;28;20112;-86
2021/08/25 13:59:15;;;;;;;9.50;2.50;;;;;;;;;;5014440;28;20033;-87
2021/08/25 14:01:41;;;;;;;8.85;2.45;;;;;;;;;;4998501;28;20028;-89
2021/08/25 14:04:07;;;;;;;10.20;3.08;;;;;;;;;;5010049;28;20125;-87
2021/08/25 14:06:34;;;;;;;8.70;2.42;;;;;;;;;;5007971;28;20017;-86
2021/08/25 14:09:00;;;;;;;8.15;2.60;;;;;;;;;;5026084;28;20021;-86
2021/08/25 14:11:26;;;;;;;7.05;2.30;;;;;;;;;;5017511;28;20021;-86
2021/08/25 14:13:52;;;;;;;9.23;2.88;;;;;;;;;;5002772;28;20025;-86
2021/08/25 14:16:19;;;;;;;10.20;2.78;;;;;;;;;;5021652;28;20017;-89
2021/08/25 14:18:45;;;;;;;10.25;2.83;;;;;;;;;;5016073;28;20165;-88
2021/08/25 14:21:12;;;;;;;9.48;3.13;;;;;;;;;;5024306;28;20038;-89
2021/08/25 14:23:38;;;;;;;8.07;2.70;;;;;;;;;;5005621;28;20026;-87
2021/08/25 14:26:04;;;;;;;8.18;2.42;;;;;;;;;;5007010;28;20053;-88
2021/08/25 14:28:31;;;;;;;9.00;2.40;;;;;;;;;;5021796;28;20022;-88
2021/08/25 14:30:58;;;;;;;8.98;2.08;;;;;;;;;;5023584;28;20034;-87
2021/08/25 14:33:24;;;;;;;8.30;2.40;;;;;;;;;;5015429;28;20167;-87
2021/08/25 14:35:51;;;;;;;7.65;2.10;;;;;;;;;;5015944;28;20822;-87
2021/08/25 14:38:17;;;;;;;10.68;2.97;;;;;;;;;;4996915;28;20038;-87
2021/08/25 14:40:44;;;;;;;8.15;2.00;;;;;;;;;;4994435;28;20032;-86
2021/08/25 14:43:10;;;;;;;6.82;2.10;;;;;;;;;;4992298;28;20110;-80
2021/08/25 14:45:37;;;;;;;6.85;2.00;;;;;;;;;;5000553;28;20026;-80